createdAt,value
2019-02-27T00:02:22.736Z,37.03
2019-02-27T00:04:48.946Z,32.17
2019-02-27T00:07:15.296Z,42.73
2019-02-27T00:09:42.639Z,39.07
2019-02-27T00:12:09.052Z,40.23
2019-02-27T00:14:35.701Z,39.63
2019-02-27T00:17:02.573Z,35.83
2019-02-27T00:19:31.329Z,39.77
2019-02-27T00:21:57.479Z,38.30
2019-02-27T00:24:23.812Z,33.40
2019-02-27T00:26:50.411Z,30.93
2019-02-27T00:29:16.819Z,33.20
2019-02-27T00:31:45.991Z,33.10
2019-02-27T00:34:11.975Z,36.07
2019-02-27T00:36:38.701Z,32.53
2019-02-27T00:39:07.544Z,35.53
2019-02-27T00:41:34.305Z,35.20
2019-02-27T00:44:01.458Z,30.57
2019-02-27T00:46:29.521Z,33.40
2019-02-27T00:48:59.085Z,35.17
2019-02-27T00:51:24.093Z,30.67
2019-02-27T00:53:50.678Z,39.60
2019-02-27T00:56:17.057Z,37.40
2019-02-27T00:58:43.689Z,41.10
2019-02-27T01:01:12.673Z,48.33
2019-02-27T01:03:38.616Z,33.77
2019-02-27T01:06:05.393Z,41.20
2019-02-27T01:08:31.723Z,55.67
2019-02-27T01:10:58.444Z,38.83
2019-02-27T01:13:25.090Z,39.43
2019-02-27T01:15:51.437Z,45.20
2019-02-27T01:18:18.130Z,40.37
2019-02-27T01:20:58.478Z,43.30
2019-02-27T01:23:24.836Z,42.30
2019-02-27T01:25:51.398Z,40.13
2019-02-27T01:28:17.723Z,38.23
2019-02-27T01:30:44.108Z,38.80
2019-02-27T01:33:10.427Z,46.50
2019-02-27T01:35:37.158Z,36.43
2019-02-27T01:38:05.386Z,42.03
2019-02-27T01:40:32.058Z,33.90
2019-02-27T01:42:58.425Z,33.50
2019-02-27T01:45:25.002Z,37.63
2019-02-27T01:47:51.319Z,32.40
2019-02-27T01:50:28.330Z,31.50
2019-02-27T01:52:54.688Z,27.33
2019-02-27T01:55:22.441Z,34.43
2019-02-27T01:57:49.221Z,26.90
2019-02-27T02:00:15.548Z,31.90
2019-02-27T02:02:43.803Z,26.50
2019-02-27T02:05:10.306Z,35.93
2019-02-27T02:07:40.158Z,30.80
2019-02-27T02:10:09.388Z,36.60
2019-02-27T02:12:35.991Z,39.73
2019-02-27T02:15:16.586Z,38.30
2019-02-27T02:18:18.429Z,49.50
2019-02-27T02:21:08.081Z,45.27
2019-02-27T02:24:30.409Z,51.73
2019-02-27T02:27:13.896Z,47.00
2019-02-27T02:30:12.780Z,46.70
2019-02-27T02:33:02.539Z,44.50
2019-02-27T02:35:55.628Z,51.70
2019-02-27T02:38:39.063Z,45.07
2019-02-27T02:41:46.784Z,41.17
2019-02-27T02:44:37.661Z,40.77
2019-02-27T02:47:45.687Z,44.33
2019-02-27T02:50:35.597Z,39.77
2019-02-27T02:53:34.555Z,44.07
2019-02-27T02:56:23.938Z,45.20
2019-02-27T02:59:32.317Z,42.27
2019-02-27T03:02:12.959Z,40.07
2019-02-27T03:04:51.624Z,41.27
2019-02-27T03:07:44.740Z,43.87
2019-02-27T03:10:25.174Z,35.07
2019-02-27T03:13:14.904Z,41.00
2019-02-27T03:15:46.930Z,34.50
2019-02-27T03:18:46.372Z,34.13
2019-02-27T03:22:03.106Z,33.73
2019-02-27T03:24:37.322Z,35.10
2019-02-27T03:27:32.932Z,35.50
2019-02-27T03:30:34.211Z,36.60
2019-02-27T03:33:27.251Z,37.93
2019-02-27T03:36:14.029Z,39.90
2019-02-27T03:38:59.118Z,39.30
2019-02-27T03:41:43.963Z,45.87
2019-02-27T03:44:24.460Z,40.73
2019-02-27T03:47:39.782Z,48.20
2019-02-27T03:50:41.453Z,39.80
2019-02-27T03:53:22.759Z,37.47
2019-02-27T03:56:15.545Z,44.97
2019-02-27T03:59:05.576Z,39.93
2019-02-27T04:01:47.514Z,44.80
2019-02-27T04:04:48.222Z,36.80
2019-02-27T04:07:32.768Z,43.13
2019-02-27T04:09:59.126Z,45.33
2019-02-27T04:12:25.468Z,46.07
2019-02-27T04:14:52.299Z,40.67
2019-02-27T04:17:26.441Z,39.93
2019-02-27T04:19:52.875Z,40.10
2019-02-27T04:22:19.194Z,42.83
2019-02-27T04:24:45.743Z,41.90
2019-02-27T04:27:12.140Z,38.90
2019-02-27T04:29:41.073Z,40.40
2019-02-27T04:32:09.666Z,38.20
2019-02-27T04:34:36.524Z,38.90
2019-02-27T04:37:02.892Z,37.50
2019-02-27T04:39:30.599Z,39.17
2019-02-27T04:41:56.893Z,34.93
2019-02-27T04:44:23.312Z,38.83
2019-02-27T04:46:49.885Z,36.03
2019-02-27T04:49:16.474Z,33.93
2019-02-27T04:51:43.069Z,32.87
2019-02-27T04:54:09.468Z,33.83
2019-02-27T04:56:35.755Z,32.20
2019-02-27T04:59:02.178Z,37.13
2019-02-27T05:01:28.615Z,37.67
2019-02-27T05:03:54.958Z,35.40
2019-02-27T05:06:21.263Z,38.40
2019-02-27T05:08:47.603Z,36.63
2019-02-27T05:11:14.841Z,44.00
2019-02-27T05:13:41.551Z,35.77
2019-02-27T05:16:08.223Z,39.50
2019-02-27T05:18:34.923Z,34.90
2019-02-27T05:21:01.659Z,35.43
2019-02-27T05:23:30.840Z,42.60
2019-02-27T05:25:57.068Z,36.70
2019-02-27T05:28:23.629Z,36.80
2019-02-27T05:30:49.939Z,42.20
2019-02-27T05:33:16.335Z,41.33
2019-02-27T05:35:42.662Z,43.40
2019-02-27T05:38:12.527Z,41.87
2019-02-27T05:40:38.874Z,33.70
2019-02-27T05:43:05.465Z,39.87
2019-02-27T05:45:31.795Z,34.83
2019-02-27T05:47:58.412Z,38.00
2019-02-27T05:50:25.004Z,42.80
2019-02-27T05:52:51.331Z,44.60
2019-02-27T05:55:17.743Z,40.30
2019-02-27T05:57:44.047Z,35.40
2019-02-27T06:00:14.481Z,41.70
2019-02-27T06:02:41.962Z,40.30
2019-02-27T06:05:09.542Z,36.80
2019-02-27T06:07:36.118Z,40.07
2019-02-27T06:10:07.209Z,43.53
2019-02-27T06:12:33.929Z,34.37
2019-02-27T06:15:00.252Z,40.00
2019-02-27T06:17:26.865Z,38.43
2019-02-27T06:19:53.265Z,40.30
2019-02-27T06:22:19.584Z,34.97
2019-02-27T06:24:46.393Z,35.30
2019-02-27T06:27:13.883Z,32.43
2019-02-27T06:29:40.252Z,34.40
2019-02-27T06:32:06.838Z,36.63
2019-02-27T06:34:33.425Z,39.37
2019-02-27T06:36:59.878Z,38.73
2019-02-27T06:39:26.248Z,40.57
2019-02-27T06:41:52.563Z,32.70
2019-02-27T06:44:19.146Z,38.67
2019-02-27T06:46:45.549Z,38.47
2019-02-27T06:49:11.903Z,50.30
2019-02-27T06:51:38.552Z,29.57
2019-02-27T06:54:05.166Z,37.30
2019-02-27T06:56:32.743Z,34.80
2019-02-27T06:58:59.106Z,40.13
2019-02-27T07:01:25.665Z,41.60
2019-02-27T07:03:52.039Z,39.07
2019-02-27T07:06:21.319Z,35.20
2019-02-27T07:08:46.640Z,35.60
2019-02-27T07:11:12.991Z,34.70
2019-02-27T07:13:39.550Z,37.30
2019-02-27T07:16:06.174Z,43.77
2019-02-27T07:18:32.501Z,40.97
2019-02-27T07:20:59.239Z,33.13
2019-02-27T07:23:25.927Z,38.50
2019-02-27T07:25:52.264Z,32.67
2019-02-27T07:28:18.586Z,31.13
2019-02-27T07:30:44.911Z,37.73
2019-02-27T07:33:11.308Z,33.10
2019-02-27T07:35:37.641Z,38.23
2019-02-27T07:38:04.130Z,41.07
2019-02-27T07:40:30.446Z,36.23
2019-02-27T07:42:57.037Z,39.30
2019-02-27T07:45:23.444Z,43.67
2019-02-27T07:47:49.909Z,36.07
2019-02-27T07:50:17.613Z,36.40
2019-02-27T07:52:43.922Z,39.10
2019-02-27T07:55:21.838Z,33.33
2019-02-27T07:57:44.879Z,45.90
2019-02-27T08:00:22.264Z,35.93
2019-02-27T08:02:48.855Z,45.40
2019-02-27T08:05:15.204Z,42.87
2019-02-27T08:07:41.823Z,38.87
2019-02-27T08:10:18.766Z,37.90
2019-02-27T08:12:45.340Z,39.73
2019-02-27T08:15:21.708Z,44.70
2019-02-27T08:17:49.358Z,42.60
2019-02-27T08:20:20.216Z,41.50
2019-02-27T08:22:44.673Z,37.90
2019-02-27T08:25:15.654Z,34.47
2019-02-27T08:27:43.873Z,42.77
2019-02-27T08:30:21.663Z,35.87
2019-02-27T08:32:48.297Z,40.50
2019-02-27T08:35:16.619Z,35.63
2019-02-27T08:37:42.882Z,35.10
2019-02-27T08:40:11.902Z,36.57
2019-02-27T08:42:40.535Z,33.77
2019-02-27T08:45:19.846Z,44.00
2019-02-27T08:47:44.355Z,40.23
2019-02-27T08:50:13.945Z,39.73
2019-02-27T08:52:40.274Z,37.97
2019-02-27T08:55:18.858Z,34.80
2019-02-27T08:57:38.638Z,41.70
2019-02-27T09:00:17.662Z,36.80
2019-02-27T09:02:44.221Z,40.80
2019-02-27T09:05:10.547Z,36.50
2019-02-27T09:07:37.075Z,35.27
2019-02-27T09:10:11.309Z,41.03
2019-02-27T09:12:37.791Z,35.63
2019-02-27T09:15:06.860Z,38.63
2019-02-27T09:17:33.512Z,36.77
2019-02-27T09:20:00.076Z,37.60
2019-02-27T09:22:26.518Z,41.80
2019-02-27T09:24:53.890Z,37.60
2019-02-27T09:27:20.458Z,37.83
2019-02-27T09:29:46.773Z,47.43
2019-02-27T09:32:13.089Z,42.43
2019-02-27T09:34:40.264Z,38.37
2019-02-27T09:37:06.594Z,38.50
2019-02-27T09:39:35.023Z,40.00
2019-02-27T09:42:01.468Z,34.33
2019-02-27T09:44:27.938Z,44.87
2019-02-27T09:46:54.558Z,39.73
2019-02-27T09:49:20.878Z,40.60
2019-02-27T09:51:47.331Z,41.13
2019-02-27T09:54:14.019Z,37.13
2019-02-27T09:56:40.345Z,43.57
2019-02-27T09:59:07.118Z,37.67
2019-02-27T10:01:35.269Z,45.00
2019-02-27T10:04:01.686Z,42.90
2019-02-27T10:06:28.274Z,44.53
2019-02-27T10:08:56.481Z,40.43
2019-02-27T10:11:23.102Z,43.13
2019-02-27T10:13:49.523Z,42.70
2019-02-27T10:16:15.994Z,39.27
2019-02-27T10:18:42.604Z,41.33
2019-02-27T10:21:11.673Z,40.53
2019-02-27T10:23:37.662Z,45.53
2019-02-27T10:26:04.288Z,39.07
2019-02-27T10:28:30.890Z,43.20
2019-02-27T10:30:57.496Z,39.13
2019-02-27T10:33:25.816Z,43.33
2019-02-27T10:35:52.362Z,37.47
2019-02-27T10:38:18.898Z,40.77
2019-02-27T10:40:46.030Z,35.83
2019-02-27T10:43:13.244Z,41.40
2019-02-27T10:45:39.829Z,45.30
2019-02-27T10:48:06.377Z,40.87
2019-02-27T10:50:35.496Z,40.30
2019-02-27T10:53:01.137Z,46.40
2019-02-27T10:55:27.448Z,37.00
2019-02-27T10:57:53.820Z,41.90
2019-02-27T11:00:29.948Z,37.93
2019-02-27T11:02:57.696Z,42.23
2019-02-27T11:05:27.163Z,36.77
2019-02-27T11:07:53.810Z,32.87
2019-02-27T11:10:21.712Z,38.90
2019-02-27T11:12:48.686Z,41.60
2019-02-27T11:15:17.859Z,42.37
2019-02-27T11:17:44.178Z,30.97
2019-02-27T11:20:11.944Z,29.10
2019-02-27T11:22:38.240Z,28.10
2019-02-27T11:25:09.664Z,28.30
2019-02-27T11:27:36.383Z,25.77
2019-02-27T11:30:15.062Z,28.07
2019-02-27T11:32:41.384Z,27.10
2019-02-27T11:35:08.179Z,26.33
2019-02-27T11:37:34.544Z,28.40
2019-02-27T11:40:02.204Z,31.03
2019-02-27T11:42:28.966Z,23.80
2019-02-27T11:44:57.024Z,23.40
2019-02-27T11:47:23.717Z,19.87
2019-02-27T11:49:50.109Z,22.67
2019-02-27T11:52:16.388Z,18.17
2019-02-27T11:54:43.843Z,18.87
2019-02-27T11:57:10.331Z,21.20
2019-02-27T11:59:36.958Z,17.77
2019-02-27T12:02:03.616Z,18.27
2019-02-27T12:04:29.949Z,21.83
2019-02-27T12:06:56.598Z,17.03
2019-02-27T12:09:23.200Z,16.03
2019-02-27T12:11:49.857Z,17.03
2019-02-27T12:14:16.497Z,17.13
2019-02-27T12:16:43.124Z,15.17
2019-02-27T12:19:09.710Z,21.63
2019-02-27T12:21:36.040Z,22.10
2019-02-27T12:24:02.651Z,15.13
2019-02-27T12:26:29.262Z,11.20
2019-02-27T12:28:55.626Z,17.67
2019-02-27T12:31:22.302Z,15.00
2019-02-27T12:33:48.934Z,12.83
2019-02-27T12:36:16.079Z,14.63
2019-02-27T12:38:43.827Z,15.13
2019-02-27T12:41:10.186Z,15.07
2019-02-27T12:43:36.512Z,13.53
2019-02-27T12:46:03.130Z,12.43
2019-02-27T12:48:29.633Z,14.60
2019-02-27T12:50:56.976Z,10.97
2019-02-27T12:53:23.630Z,11.57
2019-02-27T12:55:49.918Z,13.50
2019-02-27T12:58:16.545Z,12.17
2019-02-27T13:00:43.144Z,12.53
2019-02-27T13:03:09.593Z,14.23
2019-02-27T13:05:36.428Z,15.30
2019-02-27T13:08:03.283Z,14.30
2019-02-27T13:10:34.058Z,16.40
2019-02-27T13:12:58.213Z,22.53
2019-02-27T13:15:26.309Z,13.27
2019-02-27T13:17:56.070Z,18.17
2019-02-27T13:20:28.793Z,14.73
2019-02-27T13:22:55.113Z,18.57
2019-02-27T13:25:24.006Z,14.07
2019-02-27T13:27:49.709Z,13.23
2019-02-27T13:30:19.055Z,16.70
2019-02-27T13:32:45.703Z,16.67
2019-02-27T13:35:12.552Z,17.97
2019-02-27T13:37:43.770Z,16.30
2019-02-27T13:40:19.661Z,13.97
2019-02-27T13:42:53.493Z,15.40
2019-02-27T13:45:25.625Z,18.73
2019-02-27T13:47:52.802Z,14.13
2019-02-27T13:50:26.995Z,14.07
2019-02-27T13:52:54.112Z,13.33
2019-02-27T13:55:22.306Z,9.73
2019-02-27T13:57:50.726Z,12.33
2019-02-27T14:00:25.748Z,11.60
2019-02-27T14:02:52.772Z,14.70
2019-02-27T14:05:24.807Z,9.63
2019-02-27T14:07:57.302Z,13.93
2019-02-27T14:10:24.329Z,10.77
2019-02-27T14:12:50.695Z,12.30
2019-02-27T14:15:20.270Z,9.87
2019-02-27T14:17:46.832Z,13.80
2019-02-27T14:20:19.880Z,10.00
2019-02-27T14:22:47.092Z,8.33
2019-02-27T14:25:20.374Z,10.63
2019-02-27T14:27:48.124Z,12.40
2019-02-27T14:30:22.352Z,10.80
2019-02-27T14:32:57.120Z,13.13
2019-02-27T14:35:24.549Z,10.00
2019-02-27T14:38:00.314Z,8.67
2019-02-27T14:40:27.610Z,12.10
2019-02-27T14:42:59.897Z,8.13
2019-02-27T14:45:26.937Z,13.53
2019-02-27T14:47:53.776Z,9.13
2019-02-27T14:50:22.396Z,8.63
2019-02-27T14:53:00.456Z,8.43
2019-02-27T14:55:28.644Z,9.17
2019-02-27T14:57:56.168Z,7.13
2019-02-27T15:00:27.350Z,9.60
2019-02-27T15:03:02.835Z,7.30
2019-02-27T15:05:29.744Z,8.90
2019-02-27T15:07:56.144Z,8.97
2019-02-27T15:10:23.099Z,8.10
2019-02-27T15:12:53.968Z,10.70
2019-02-27T15:15:29.775Z,9.70
2019-02-27T15:17:56.229Z,7.10
2019-02-27T15:20:41.319Z,10.63
2019-02-27T15:23:54.356Z,13.50
2019-02-27T15:26:45.179Z,7.10
2019-02-27T15:29:09.500Z,7.40
2019-02-27T15:31:35.851Z,12.03
2019-02-27T15:34:02.476Z,9.10
2019-02-27T15:36:30.413Z,8.73
2019-02-27T15:38:56.901Z,8.40
2019-02-27T15:41:23.211Z,9.60
2019-02-27T15:43:57.572Z,9.80
2019-02-27T15:46:21.369Z,10.87
2019-02-27T15:48:46.549Z,8.30
2019-02-27T15:51:13.241Z,8.70
2019-02-27T15:53:39.756Z,6.37
2019-02-27T15:56:08.574Z,6.43
2019-02-27T15:58:34.663Z,8.30
2019-02-27T16:01:02.141Z,7.73
2019-02-27T16:03:29.822Z,8.87
2019-02-27T16:05:56.475Z,11.33
2019-02-27T16:08:25.994Z,8.93
2019-02-27T16:10:55.221Z,10.70
2019-02-27T16:13:21.169Z,7.63
2019-02-27T16:15:48.517Z,13.30
2019-02-27T16:18:15.475Z,11.00
2019-02-27T16:20:42.055Z,13.77
2019-02-27T16:23:08.378Z,21.23
2019-02-27T16:25:34.973Z,17.30
2019-02-27T16:28:01.583Z,16.27
2019-02-27T16:30:33.450Z,11.43
2019-02-27T16:33:00.107Z,22.70
2019-02-27T16:35:26.445Z,49.77
2019-02-27T16:37:56.595Z,18.47
2019-02-27T16:40:25.657Z,13.50
2019-02-27T16:42:52.751Z,11.10
2019-02-27T16:45:36.660Z,16.20
2019-02-27T16:48:02.119Z,19.57
2019-02-27T16:50:28.671Z,26.50
2019-02-27T16:52:55.481Z,17.70
2019-02-27T16:55:26.280Z,14.77
2019-02-27T16:57:56.453Z,12.50
2019-02-27T17:00:31.436Z,11.43
2019-02-27T17:02:57.961Z,11.17
2019-02-27T17:05:24.575Z,16.00
2019-02-27T17:07:51.175Z,13.40
2019-02-27T17:10:37.689Z,18.50
2019-02-27T17:13:05.003Z,26.90
2019-02-27T17:15:35.820Z,16.40
2019-02-27T17:18:00.404Z,15.07
2019-02-27T17:20:27.710Z,16.90
2019-02-27T17:22:54.109Z,12.30
2019-02-27T17:25:20.489Z,15.93
2019-02-27T17:27:49.847Z,13.27
2019-02-27T17:30:21.096Z,13.30
2019-02-27T17:32:47.769Z,15.80
2019-02-27T17:35:14.063Z,12.87
2019-02-27T17:37:40.732Z,11.27
2019-02-27T17:40:16.174Z,12.87
2019-02-27T17:42:42.992Z,13.93
2019-02-27T17:45:14.101Z,14.90
2019-02-27T17:47:40.518Z,10.03
2019-02-27T17:50:09.553Z,13.87
2019-02-27T17:52:36.415Z,15.23
2019-02-27T17:55:06.868Z,11.80
2019-02-27T17:57:33.851Z,13.83
2019-02-27T18:00:00.504Z,17.87
2019-02-27T18:02:26.850Z,12.47
2019-02-27T18:04:53.894Z,14.60
2019-02-27T18:07:20.525Z,10.20
2019-02-27T18:09:46.966Z,13.93
2019-02-27T18:12:13.284Z,24.83
2019-02-27T18:14:43.525Z,16.70
2019-02-27T18:17:08.535Z,27.23
2019-02-27T18:19:34.881Z,16.70
2019-02-27T18:22:01.598Z,16.23
2019-02-27T18:24:33.155Z,15.83
2019-02-27T18:26:56.433Z,16.13
2019-02-27T18:29:22.758Z,18.43
2019-02-27T18:31:49.188Z,19.17
2019-02-27T18:34:15.558Z,14.93
2019-02-27T18:36:43.131Z,15.50
2019-02-27T18:39:10.444Z,16.63
2019-02-27T18:41:36.820Z,16.73
2019-02-27T18:44:04.801Z,15.10
2019-02-27T18:46:31.702Z,17.57
2019-02-27T18:48:58.052Z,14.93
2019-02-27T18:51:24.727Z,22.40
2019-02-27T18:53:51.404Z,17.07
2019-02-27T18:56:18.046Z,16.03
2019-02-27T18:58:44.720Z,21.43
2019-02-27T19:01:11.392Z,20.83
2019-02-27T19:03:37.992Z,19.90
2019-02-27T19:06:04.714Z,16.50
2019-02-27T19:08:31.317Z,16.33
2019-02-27T19:10:57.711Z,25.00
2019-02-27T19:13:24.381Z,22.43
2019-02-27T19:15:50.876Z,15.47
2019-02-27T19:18:17.523Z,18.70
2019-02-27T19:20:45.460Z,21.00
2019-02-27T19:23:17.337Z,19.07
2019-02-27T19:25:41.107Z,19.17
2019-02-27T19:28:07.867Z,22.90
2019-02-27T19:30:34.854Z,30.70
2019-02-27T19:33:02.019Z,19.80
2019-02-27T19:35:31.655Z,17.57
2019-02-27T19:37:58.381Z,21.03
2019-02-27T19:40:29.894Z,18.80
2019-02-27T19:42:56.155Z,30.80
2019-02-27T19:45:24.150Z,22.77
2019-02-27T19:47:54.633Z,29.80
2019-02-27T19:50:19.517Z,26.00
2019-02-27T19:52:46.292Z,21.77
2019-02-27T19:55:12.840Z,33.80
2019-02-27T19:57:42.334Z,24.00
2019-02-27T20:00:33.574Z,31.33
2019-02-27T20:03:01.083Z,14.53
2019-02-27T20:05:25.241Z,16.10
2019-02-27T20:07:52.618Z,15.07
2019-02-27T20:10:19.059Z,18.03
2019-02-27T20:12:47.769Z,15.13
2019-02-27T20:15:18.917Z,16.10
2019-02-27T20:17:45.250Z,23.47
2019-02-27T20:20:21.084Z,24.90
2019-02-27T20:22:52.964Z,28.00
2019-02-27T20:25:18.179Z,21.57
2019-02-27T20:27:45.005Z,27.80
2019-02-27T20:30:17.964Z,22.20
2019-02-27T20:32:45.782Z,22.63
2019-02-27T20:35:12.612Z,20.70
2019-02-27T20:37:40.289Z,23.53
2019-02-27T20:40:11.033Z,21.90
2019-02-27T20:42:38.192Z,25.40
2019-02-27T20:45:20.106Z,23.47
2019-02-27T20:47:47.114Z,23.87
2019-02-27T20:50:21.853Z,23.80
2019-02-27T20:52:46.542Z,25.80
2019-02-27T20:55:14.459Z,24.90
2019-02-27T20:57:42.292Z,23.93
2019-02-27T21:00:14.240Z,25.57
2019-02-27T21:02:40.742Z,24.00
2019-02-27T21:05:09.544Z,20.63
2019-02-27T21:07:36.903Z,23.93
2019-02-27T21:10:09.251Z,19.37
2019-02-27T21:12:37.315Z,26.37
2019-02-27T21:15:09.281Z,20.17
2019-02-27T21:17:36.882Z,25.80
2019-02-27T21:20:11.122Z,21.43
2019-02-27T21:22:36.360Z,23.17
2019-02-27T21:25:05.207Z,20.77
2019-02-27T21:27:33.111Z,18.10
2019-02-27T21:30:00.010Z,22.67
2019-02-27T21:32:26.619Z,21.10
2019-02-27T21:34:55.243Z,19.40
2019-02-27T21:37:23.295Z,21.17
2019-02-27T21:39:49.954Z,24.63
2019-02-27T21:42:19.364Z,20.40
2019-02-27T21:44:45.913Z,22.60
2019-02-27T21:47:13.532Z,22.80
2019-02-27T21:49:40.144Z,35.83
2019-02-27T21:52:06.842Z,22.10
2019-02-27T21:54:38.391Z,23.60
2019-02-27T21:57:01.455Z,27.17
2019-02-27T21:59:28.946Z,22.60
2019-02-27T22:01:56.325Z,22.90
2019-02-27T22:04:23.519Z,18.70
2019-02-27T22:06:49.960Z,23.20
2019-02-27T22:09:16.627Z,23.53
2019-02-27T22:11:43.270Z,17.20
2019-02-27T22:14:09.572Z,21.73
2019-02-27T22:16:36.579Z,22.63
2019-02-27T22:19:03.605Z,33.60
2019-02-27T22:21:31.332Z,22.50
2019-02-27T22:23:58.324Z,22.63
2019-02-27T22:26:24.724Z,22.90
2019-02-27T22:28:54.446Z,24.13
2019-02-27T22:31:19.613Z,21.17
2019-02-27T22:33:46.443Z,23.50
2019-02-27T22:36:13.573Z,21.63
2019-02-27T22:38:40.209Z,23.57
2019-02-27T22:41:09.531Z,20.97
2019-02-27T22:43:35.164Z,20.23
2019-02-27T22:46:01.515Z,23.40
2019-02-27T22:48:28.807Z,25.40
2019-02-27T22:50:55.280Z,18.60
2019-02-27T22:53:21.874Z,20.63
2019-02-27T22:55:48.238Z,18.93
2019-02-27T22:58:14.608Z,27.63
2019-02-27T23:00:50.465Z,25.13
2019-02-27T23:03:23.820Z,29.30
2019-02-27T23:05:50.598Z,26.33
2019-02-27T23:08:17.203Z,23.37
2019-02-27T23:10:44.216Z,23.60
2019-02-27T23:13:12.785Z,23.30
2019-02-27T23:15:40.100Z,18.47
2019-02-27T23:18:07.094Z,24.93
2019-02-27T23:20:33.427Z,24.07
2019-02-27T23:23:02.401Z,22.83
2019-02-27T23:25:28.163Z,20.47
2019-02-27T23:27:57.628Z,22.13
2019-02-27T23:30:23.553Z,19.57
2019-02-27T23:32:49.955Z,18.23
2019-02-27T23:35:16.872Z,22.17
2019-02-27T23:37:43.393Z,25.37
2019-02-27T23:40:09.988Z,25.37
2019-02-27T23:42:36.595Z,19.20
2019-02-27T23:45:10.014Z,26.00
2019-02-27T23:47:35.206Z,18.63
2019-02-27T23:50:01.548Z,26.73
2019-02-27T23:52:28.104Z,18.50
2019-02-27T23:54:54.718Z,21.50
2019-02-27T23:57:23.577Z,19.00
2019-02-27T23:59:49.390Z,24.00
